Time;durP1;ratioP1;P1;durP2;ratioP2;P2;SDS_P1;SDS_P2;PMS_P1;PMS_P2;Temp;Humidity;BMP_temperature;BMP_pressure;BME280_temperature;BME280_humidity;BME280_pressure;Samples;Min_cycle;Max_cycle;Signal;HPM_P1;HPM_P2
2022/02/13 00:00:45;;;;;;;5.97;4.20;;;;;;;;;;470716;252;26273;-72
2022/02/13 00:02:47;;;;;;;6.25;4.07;;;;;;;;;;470714;252;26812;-72
2022/02/13 00:04:49;;;;;;;4.47;4.07;;;;;;;;;;470708;252;26308;-72
2022/02/13 00:06:51;;;;;;;3.95;3.55;;;;;;;;;;470701;252;27839;-72
2022/02/13 00:08:54;;;;;;;4.70;4.25;;;;;;;;;;470722;252;26274;-72
2022/02/13 00:10:55;;;;;;;5.60;3.92;;;;;;;;;;470639;252;26906;-72
2022/02/13 00:12:57;;;;;;;4.65;3.42;;;;;;;;;;470684;252;26368;-72
2022/02/13 00:14:59;;;;;;;4.00;3.70;;;;;;;;;;470705;252;26847;-72
2022/02/13 00:17:02;;;;;;;4.57;4.18;;;;;;;;;;470694;252;26268;-72
2022/02/13 00:19:04;;;;;;;3.95;3.65;;;;;;;;;;470668;252;26749;-71
2022/02/13 00:21:06;;;;;;;5.00;4.00;;;;;;;;;;470670;252;26289;-72
2022/02/13 00:23:08;;;;;;;5.10;4.60;;;;;;;;;;470675;252;26285;-72
2022/02/13 00:25:10;;;;;;;3.72;3.40;;;;;;;;;;470675;252;26369;-72
2022/02/13 00:27:12;;;;;;;7.82;4.00;;;;;;;;;;470689;252;26380;-72
2022/02/13 00:29:14;;;;;;;4.25;3.90;;;;;;;;;;470674;252;26298;-71
2022/02/13 00:31:16;;;;;;;4.18;3.65;;;;;;;;;;470694;252;26289;-72
2022/02/13 00:33:18;;;;;;;4.35;3.50;;;;;;;;;;470700;252;26377;-72
2022/02/13 00:35:21;;;;;;;4.78;3.60;;;;;;;;;;470694;252;26377;-72
2022/02/13 00:37:23;;;;;;;8.15;4.10;;;;;;;;;;470697;252;26409;-71
2022/02/13 00:39:25;;;;;;;4.32;3.97;;;;;;;;;;470712;252;26362;-72
2022/02/13 00:41:27;;;;;;;4.18;3.78;;;;;;;;;;470694;251;26845;-71
2022/02/13 00:43:29;;;;;;;4.15;3.78;;;;;;;;;;470691;252;26411;-72
2022/02/13 00:45:31;;;;;;;4.70;4.30;;;;;;;;;;470679;252;27931;-72
2022/02/13 00:47:33;;;;;;;4.60;4.15;;;;;;;;;;470685;252;26280;-72
2022/02/13 00:49:35;;;;;;;4.90;4.40;;;;;;;;;;470675;252;26851;-72
2022/02/13 00:51:37;;;;;;;4.35;3.95;;;;;;;;;;470692;252;26286;-72
2022/02/13 00:53:40;;;;;;;4.35;3.95;;;;;;;;;;470701;252;27211;-71
2022/02/13 00:55:42;;;;;;;6.55;4.75;;;;;;;;;;470686;252;26289;-71
2022/02/13 00:57:44;;;;;;;4.62;4.00;;;;;;;;;;470683;252;26841;-72
2022/02/13 00:59:46;;;;;;;5.18;4.78;;;;;;;;;;470685;252;26425;-71
2022/02/13 01:01:48;;;;;;;5.28;4.78;;;;;;;;;;470705;252;26292;-72
2022/02/13 01:03:50;;;;;;;6.68;4.82;;;;;;;;;;470713;252;26353;-72
2022/02/13 01:05:52;;;;;;;5.18;4.53;;;;;;;;;;470699;252;26352;-72
2022/02/13 01:07:54;;;;;;;5.80;4.62;;;;;;;;;;470683;252;26361;-71
2022/02/13 01:09:56;;;;;;;5.50;5.00;;;;;;;;;;470703;252;26304;-71
2022/02/13 01:11:59;;;;;;;4.75;4.30;;;;;;;;;;470684;252;26289;-72
2022/02/13 01:14:01;;;;;;;6.72;4.50;;;;;;;;;;470692;252;26270;-72
2022/02/13 01:16:03;;;;;;;4.45;4.05;;;;;;;;;;470694;252;26282;-72
2022/02/13 01:18:05;;;;;;;4.82;4.43;;;;;;;;;;470696;252;26270;-72
2022/02/13 01:20:07;;;;;;;12.50;4.78;;;;;;;;;;470680;252;27836;-71
2022/02/13 01:22:10;;;;;;;5.00;4.35;;;;;;;;;;470673;252;26273;-72
2022/02/13 01:24:11;;;;;;;4.75;4.10;;;;;;;;;;470645;252;26831;-72
2022/02/13 01:26:13;;;;;;;5.43;4.47;;;;;;;;;;470677;252;26274;-72
2022/02/13 01:28:15;;;;;;;4.55;4.15;;;;;;;;;;470678;251;26761;-72
2022/02/13 01:30:18;;;;;;;4.45;4.05;;;;;;;;;;470682;251;26273;-72
2022/02/13 01:32:20;;;;;;;4.95;4.03;;;;;;;;;;470675;252;26820;-72
2022/02/13 01:34:22;;;;;;;6.20;4.00;;;;;;;;;;470694;252;26281;-72
2022/02/13 01:36:24;;;;;;;5.32;3.87;;;;;;;;;;470690;252;26754;-72
2022/02/13 01:38:26;;;;;;;5.12;4.05;;;;;;;;;;470682;252;26393;-72
2022/02/13 01:40:28;;;;;;;4.18;3.75;;;;;;;;;;470687;252;26301;-72
2022/02/13 01:42:30;;;;;;;5.03;3.70;;;;;;;;;;470696;252;26316;-72
2022/02/13 01:44:32;;;;;;;4.03;3.62;;;;;;;;;;470713;252;26276;-72
2022/02/13 01:46:34;;;;;;;4.20;3.65;;;;;;;;;;470700;252;26294;-72
2022/02/13 01:48:37;;;;;;;4.82;3.53;;;;;;;;;;470698;252;26368;-72
2022/02/13 01:50:39;;;;;;;3.80;3.50;;;;;;;;;;470708;252;26273;-71
2022/02/13 01:52:42;;;;;;;3.67;3.37;;;;;;;;;;470668;252;26274;-71
2022/02/13 01:54:43;;;;;;;3.85;3.55;;;;;;;;;;470652;252;26274;-72
2022/02/13 01:56:45;;;;;;;3.83;3.45;;;;;;;;;;470671;252;26309;-71
2022/02/13 01:58:47;;;;;;;4.68;3.42;;;;;;;;;;470706;252;26285;-72
2022/02/13 02:00:49;;;;;;;3.83;3.53;;;;;;;;;;470696;252;26341;-72
2022/02/13 02:02:51;;;;;;;8.73;4.50;;;;;;;;;;470667;252;26289;-72
2022/02/13 02:04:57;;;;;;;4.03;3.62;;;;;;;;;;470700;252;26284;-72
2022/02/13 02:07:00;;;;;;;4.65;4.07;;;;;;;;;;470667;252;26780;-72
2022/02/13 02:09:01;;;;;;;4.28;3.87;;;;;;;;;;470617;252;26308;-72
2022/02/13 02:11:03;;;;;;;4.97;4.50;;;;;;;;;;470687;252;26821;-72
2022/02/13 02:13:05;;;;;;;5.37;4.85;;;;;;;;;;470675;252;26280;-72
2022/02/13 02:15:07;;;;;;;5.30;4.40;;;;;;;;;;470674;252;26828;-72
2022/02/13 02:17:09;;;;;;;5.62;4.47;;;;;;;;;;470678;252;26361;-71
2022/02/13 02:19:11;;;;;;;6.68;4.87;;;;;;;;;;470685;252;26725;-72
2022/02/13 02:21:14;;;;;;;5.15;4.65;;;;;;;;;;470696;252;26297;-72
2022/02/13 02:23:15;;;;;;;5.20;4.70;;;;;;;;;;470680;252;26826;-72
2022/02/13 02:25:16;;;;;;;5.25;4.75;;;0.00;0.00;;;;;;470698;252;27438;-72
2022/02/13 02:27:23;;;;;;;8.63;4.28;;;;;;;;;;470694;251;26817;-72
2022/02/13 02:29:32;;;;;;;5.22;3.70;;;;;;;;;;470689;252;26286;-72
2022/02/13 02:31:36;;;;;;;5.25;4.22;;;;;;;;;;470634;252;26363;-72
2022/02/13 02:33:42;;;;;;;5.95;4.30;;;;;;;;;;470680;252;26727;-71
2022/02/13 02:35:50;;;;;;;5.05;4.40;;;;;;;;;;470691;252;26332;-72
2022/02/13 02:37:56;;;;;;;7.37;4.75;;;;;;;;;;470682;252;26339;-72
2022/02/13 02:40:01;;;;;;;5.03;3.58;;;;;;;;;;470704;252;27956;-72
2022/02/13 02:42:03;;;;;;;4.40;3.90;;;;;;;;;;470692;252;26356;-72
2022/02/13 02:44:05;;;;;;;4.35;4.05;;;;;;;;;;470706;252;26749;-72
2022/02/13 02:46:07;;;;;;;4.35;3.92;;;;;;;;;;470713;252;26289;-72
2022/02/13 02:48:11;;;;;;;4.15;3.60;;;;;;;;;;470685;252;26831;-72
2022/02/13 02:50:14;;;;;;;5.55;4.10;;;;;;;;;;470705;252;26281;-72
2022/02/13 02:52:18;;;;;;;4.93;4.12;;;;;;;;;;470713;252;26772;-72
2022/02/13 02:54:19;;;;;;;4.57;4.18;;;;;;;;;;470584;252;26284;-72
2022/02/13 02:56:21;;;;;;;5.25;4.47;;;;;;;;;;470714;252;26345;-71
2022/02/13 02:58:25;;;;;;;5.57;4.80;;;;;;;;;;470698;252;26781;-72
2022/02/13 03:00:28;;;;;;;4.75;4.10;;;;;;;;;;470696;252;27929;-72
2022/02/13 03:02:30;;;;;;;5.62;4.85;;;;;;;;;;470702;252;26281;-71
2022/02/13 03:04:32;;;;;;;4.37;3.97;;;;;;;;;;470710;252;26761;-72
2022/02/13 03:06:34;;;;;;;5.20;4.70;;;;;;;;;;470717;252;26290;-72
2022/02/13 03:08:36;;;;;;;4.70;4.30;;;;;;;;;;470718;252;26753;-72
2022/02/13 03:10:38;;;;;;;5.50;5.00;;;;;;;;;;470694;252;26400;-72
2022/02/13 03:12:42;;;;;;;5.10;4.20;;;;;;;;;;470696;252;26742;-72
2022/02/13 03:14:44;;;;;;;6.12;4.03;;;;;;;;;;470693;252;26285;-71
2022/02/13 03:16:46;;;;;;;9.25;4.50;;;;;;;;;;470705;252;26269;-73
2022/02/13 03:18:52;;;;;;;6.85;4.90;;;;;;;;;;470694;252;26282;-72
2022/02/13 03:20:53;;;;;;;6.78;4.47;;;;;;;;;;470614;252;26297;-72
2022/02/13 03:22:55;;;;;;;7.62;5.20;;;;;;;;;;470703;252;26365;-71
2022/02/13 03:24:59;;;;;;;6.57;4.82;;;;;;;;;;470692;252;26275;-71
2022/02/13 03:26:59;;;;;;;6.25;5.35;;;;;;;;;;470573;252;26377;-72
2022/02/13 03:29:03;;;;;;;8.95;5.10;;;;;;;;;;470713;252;26282;-72
2022/02/13 03:31:07;;;;;;;9.20;5.07;;;;;;;;;;470703;252;26274;-72
2022/02/13 03:33:09;;;;;;;9.00;4.60;;;;;;;;;;470701;252;26298;-72
2022/02/13 03:35:12;;;;;;;6.30;4.97;;;;;;;;;;470682;252;27931;-72
2022/02/13 03:37:14;;;;;;;5.47;4.90;;;;;;;;;;470706;252;26300;-72
2022/02/13 03:39:16;;;;;;;8.15;5.43;;;;;;;;;;470700;252;26756;-72
2022/02/13 03:41:18;;;;;;;5.10;4.70;;;;;;;;;;470707;252;26354;-71
2022/02/13 03:43:20;;;;;;;6.87;4.87;;;;;;;;;;470703;252;27222;-72
2022/02/13 03:45:22;;;;;;;4.95;4.37;;;;;;;;;;470694;252;26284;-71
2022/02/13 03:47:25;;;;;;;8.38;4.60;;;;;;;;;;470698;252;26820;-72
2022/02/13 03:49:26;;;;;;;5.07;4.57;;;;;;;;;;470666;252;26353;-72
2022/02/13 03:51:28;;;;;;;5.30;4.28;;;;;;;;;;470717;252;26787;-72
2022/02/13 03:53:30;;;;;;;5.62;4.80;;;;;;;;;;470712;252;26312;-72
2022/02/13 03:55:33;;;;;;;5.55;4.50;;;;;;;;;;470706;252;26377;-72
2022/02/13 03:57:35;;;;;;;5.18;4.45;;;;;;;;;;470719;252;26278;-72
2022/02/13 03:59:39;;;;;;;5.25;4.75;;;;;;;;;;470713;252;26293;-72
2022/02/13 04:01:41;;;;;;;7.65;5.68;;;;;;;;;;470688;252;26842;-72
2022/02/13 04:03:43;;;;;;;8.95;5.72;;;;;;;;;;470699;252;26282;-72
2022/02/13 04:05:45;;;;;;;5.90;5.30;;;;;;;;;;470699;252;26762;-72
2022/02/13 04:07:47;;;;;;;5.45;4.95;;;;;;;;;;470680;252;26294;-72
2022/02/13 04:09:49;;;;;;;6.43;5.35;;;;;;;;;;470687;252;26316;-72
2022/02/13 04:11:51;;;;;;;7.07;5.70;;;;;;;;;;470699;252;26281;-72
2022/02/13 04:13:54;;;;;;;5.45;4.90;;;;;;;;;;470682;252;26299;-72
2022/02/13 04:15:56;;;;;;;6.45;5.20;;;;;;;;;;470697;252;26266;-71
2022/02/13 04:17:58;;;;;;;7.18;5.10;;;;;;;;;;470695;252;26306;-72
2022/02/13 04:20:00;;;;;;;9.73;5.18;;;;;;;;;;470709;252;26265;-71
2022/02/13 04:22:02;;;;;;;5.35;4.85;;;;;;;;;;470690;252;26318;-72
2022/02/13 04:24:04;;;;;;;5.62;4.72;;;;;;;;;;470701;252;26381;-71
2022/02/13 04:26:06;;;;;;;5.50;4.90;;;;;;;;;;470695;252;26388;-71
2022/02/13 04:28:08;;;;;;;5.35;4.85;;;;;;;;;;470674;253;26387;-72
2022/02/13 04:30:10;;;;;;;5.50;5.00;;;;;;;;;;470699;252;26273;-71
2022/02/13 04:32:13;;;;;;;5.15;4.65;;;;;;;;;;470682;252;26746;-72
2022/02/13 04:34:15;;;;;;;6.07;5.40;;;;;;;;;;470689;252;26265;-72
2022/02/13 04:36:17;;;;;;;8.57;5.55;;;;;;;;;;470699;252;26745;-72
2022/02/13 04:38:21;;;;;;;9.77;6.50;;;;;;;;;;470679;252;26357;-72
2022/02/13 04:40:21;;;;;;;8.32;5.55;;;;;;;;;;470618;252;27137;-72
2022/02/13 04:42:23;;;;;;;7.75;5.20;;;;;;;;;;470689;252;26285;-72
2022/02/13 04:44:25;;;;;;;6.22;5.55;;;;;;;;;;470701;252;26754;-72
2022/02/13 04:46:27;;;;;;;9.02;5.80;;;;;;;;;;470685;252;26289;-72
2022/02/13 04:48:29;;;;;;;7.68;6.22;;;;;;;;;;470686;252;26807;-72
2022/02/13 04:50:32;;;;;;;7.35;5.62;;;;;;;;;;470670;252;26297;-72
2022/02/13 04:52:34;;;;;;;8.27;6.82;;;;;;;;;;470680;252;26285;-72
2022/02/13 04:54:36;;;;;;;7.20;6.05;;;;;;;;;;470695;252;26309;-72
2022/02/13 04:56:38;;;;;;;10.70;6.68;;;;;;;;;;470704;252;26282;-72
2022/02/13 04:58:41;;;;;;;8.73;6.45;;;;;;;;;;470684;252;26281;-72
2022/02/13 05:00:42;;;;;;;8.82;5.97;;;;;;;;;;470652;251;26294;-72
2022/02/13 05:02:44;;;;;;;8.05;6.45;;;;;;;;;;470674;252;26289;-72
2022/02/13 05:04:46;;;;;;;9.57;6.30;;;;;;;;;;470686;252;26298;-71
2022/02/13 05:06:49;;;;;;;8.20;5.80;;;;;;;;;;470688;252;26361;-72
2022/02/13 05:08:51;;;;;;;7.70;5.90;;;;;;;;;;470673;252;26289;-72
2022/02/13 05:10:53;;;;;;;6.05;5.45;;;;;;;;;;470708;252;26773;-72
2022/02/13 05:12:55;;;;;;;8.27;6.05;;;;;;;;;;470670;252;26265;-72
2022/02/13 05:14:57;;;;;;;6.53;5.82;;;;;;;;;;470685;252;26904;-72
2022/02/13 05:16:59;;;;;;;7.07;5.53;;;;;;;;;;470699;252;26274;-72
2022/02/13 05:19:01;;;;;;;7.20;5.80;;;;;;;;;;470688;252;26776;-72
2022/02/13 05:21:03;;;;;;;8.95;5.75;;;;;;;;;;470695;252;26317;-72
2022/02/13 05:23:05;;;;;;;7.55;6.10;;;;;;;;;;470693;252;26742;-72
2022/02/13 05:25:07;;;;;;;6.55;5.35;;;;;;;;;;470693;252;26276;-72
2022/02/13 05:27:10;;;;;;;8.23;6.00;;;;;;;;;;470685;252;26857;-73
2022/02/13 05:29:12;;;;;;;8.52;6.62;;;;;;;;;;470692;252;26281;-71
2022/02/13 05:31:14;;;;;;;9.63;7.12;;;;;;;;;;470693;252;26288;-72
2022/02/13 05:33:16;;;;;;;9.52;7.53;;;;;;;;;;470699;252;26366;-73
2022/02/13 05:35:18;;;;;;;10.95;7.25;;;;;;;;;;470692;252;26281;-72
2022/02/13 05:37:20;;;;;;;13.85;7.25;;;;;;;;;;470700;252;26270;-72
2022/02/13 05:39:22;;;;;;;11.75;7.30;;;;;;;;;;470686;252;26353;-72
2022/02/13 05:41:24;;;;;;;10.05;7.05;;;;;;;;;;470696;252;26298;-72
2022/02/13 05:43:28;;;;;;;9.00;6.30;;;;;;;;;;470697;252;26305;-72
2022/02/13 05:45:29;;;;;;;9.57;7.20;;;;;;;;;;470633;252;26300;-71
2022/02/13 05:47:31;;;;;;;9.65;7.20;;;;;;;;;;470701;251;26285;-72
2022/02/13 05:49:33;;;;;;;8.60;7.15;;;;;;;;;;470677;252;26338;-72
2022/02/13 05:51:35;;;;;;;8.93;7.57;;;;;;;;;;470701;252;26273;-72
2022/02/13 05:53:37;;;;;;;8.50;6.97;;;;;;;;;;470689;252;26781;-72
2022/02/13 05:55:39;;;;;;;12.43;7.43;;;;;;;;;;470681;252;26277;-71
2022/02/13 05:57:42;;;;;;;10.07;7.60;;;;;;;;;;470680;252;26789;-72
2022/02/13 05:59:43;;;;;;;13.70;7.40;;;;;;;;;;470695;252;26292;-72
2022/02/13 06:01:45;;;;;;;9.77;7.40;;;;;;;;;;470687;252;26853;-71
2022/02/13 06:03:48;;;;;;;12.27;7.40;;;;;;;;;;470687;252;26286;-72
2022/02/13 06:05:50;;;;;;;11.82;9.00;;;;;;;;;;470665;252;26767;-72
2022/02/13 06:07:52;;;;;;;12.48;7.50;;;;;;;;;;470675;252;26282;-72
2022/02/13 06:09:54;;;;;;;8.60;7.70;;;;;;;;;;470680;252;26757;-72
2022/02/13 06:11:56;;;;;;;16.15;8.20;;;;;;;;;;470696;252;26278;-72
2022/02/13 06:13:58;;;;;;;12.25;8.20;;;;;;;;;;470699;252;26836;-72
2022/02/13 06:16:01;;;;;;;10.82;7.07;;;;;;;;;;470676;251;26365;-72
2022/02/13 06:18:02;;;;;;;9.48;7.03;;;;;;;;;;470683;252;26770;-72
2022/02/13 06:20:05;;;;;;;9.80;7.68;;;;;;;;;;470687;252;26322;-72
2022/02/13 06:22:07;;;;;;;14.00;8.10;;;;;;;;;;470650;252;26852;-72
2022/02/13 06:24:09;;;;;;;10.43;7.07;;;;;;;;;;470698;252;26368;-72
2022/02/13 06:26:11;;;;;;;11.00;7.82;;;;;;;;;;470692;252;26736;-72
2022/02/13 06:28:13;;;;;;;8.70;7.07;;;;;;;;;;470697;252;26265;-72
2022/02/13 06:30:15;;;;;;;10.68;7.60;;;;;;;;;;470700;252;27151;-72
2022/02/13 06:32:17;;;;;;;10.45;7.55;;;;;;;;;;470685;252;26274;-72
2022/02/13 06:34:19;;;;;;;8.55;7.22;;;;;;;;;;470680;252;26350;-72
2022/02/13 06:36:21;;;;;;;14.25;8.45;;;;;;;;;;470693;252;26290;-72
2022/02/13 06:38:23;;;;;;;14.00;7.65;;;;;;;;;;470675;252;26380;-72
2022/02/13 06:40:26;;;;;;;10.57;8.40;;;;;;;;;;470689;252;26380;-72
2022/02/13 06:42:28;;;;;;;13.93;8.07;;;;;;;;;;470676;252;26302;-72
2022/02/13 06:44:30;;;;;;;9.23;7.43;;;;;;;;;;470685;252;26375;-72
2022/02/13 06:46:32;;;;;;;10.90;7.50;;;;;;;;;;470691;252;26364;-72
2022/02/13 06:48:35;;;;;;;8.93;6.72;;;;;;;;;;470686;252;26273;-72
2022/02/13 06:50:36;;;;;;;9.60;7.40;;;;;;;;;;470659;252;26297;-72
2022/02/13 06:52:38;;;;;;;13.10;8.50;;;;;;;;;;470684;252;26330;-72
2022/02/13 06:54:40;;;;;;;12.55;8.60;;;;;;;;;;470686;252;26372;-72
2022/02/13 06:56:42;;;;;;;12.48;8.15;;;;;;;;;;470683;252;26258;-72
2022/02/13 06:58:45;;;;;;;11.27;7.97;;;;;;;;;;470695;252;26383;-72
2022/02/13 07:00:47;;;;;;;11.60;8.55;;;;;;;;;;470685;252;26280;-72
2022/02/13 07:02:49;;;;;;;13.68;8.32;;;;;;;;;;470682;252;26292;-72
2022/02/13 07:04:51;;;;;;;13.35;8.93;;;;;;;;;;470685;252;26261;-72
2022/02/13 07:06:53;;;;;;;10.55;8.00;;;;;;;;;;470660;252;26281;-72
2022/02/13 07:08:55;;;;;;;9.90;8.15;;;;;;;;;;470685;252;26270;-72
2022/02/13 07:10:57;;;;;;;11.20;7.62;;;;;;;;;;472062;251;26344;-72
2022/02/13 07:13:00;;;;;;;13.48;8.77;;;;;;;;;;473208;251;26276;-72
2022/02/13 07:15:02;;;;;;;11.00;8.13;;;;;;;;;;473222;248;26769;-72
2022/02/13 07:17:04;;;;;;;10.43;7.18;;;;;;;;;;473218;251;26380;-72
2022/02/13 07:19:06;;;;;;;10.00;7.55;;;;;;;;;;473222;250;26739;-72
2022/02/13 07:21:08;;;;;;;12.07;9.38;;;;;;;;;;473228;251;26375;-72
2022/02/13 07:23:10;;;;;;;9.43;7.50;;;;;;;;;;473237;250;26770;-72
2022/02/13 07:25:13;;;;;;;10.13;7.10;;;;;;;;;;473242;250;26311;-71
2022/02/13 07:27:14;;;;;;;10.88;7.57;;;;;;;;;;473249;248;27206;-72
2022/02/13 07:29:16;;;;;;;10.82;7.40;;;;;;;;;;473263;250;26368;-72
2022/02/13 07:31:18;;;;;;;9.68;7.12;;;;;;;;;;473236;250;26791;-73
2022/02/13 07:33:21;;;;;;;12.93;8.48;;;;;;;;;;473239;250;26360;-72
2022/02/13 07:35:23;;;;;;;16.17;7.62;;;;;;;;;;473236;250;26776;-73
2022/02/13 07:37:25;;;;;;;14.05;7.95;;;;;;;;;;473264;250;26288;-73
2022/02/13 07:39:27;;;;;;;11.80;7.80;;;;;;;;;;473348;250;26773;-74
2022/02/13 07:41:29;;;;;;;11.45;7.18;;;;;;;;;;473352;251;26800;-74
2022/02/13 07:43:31;;;;;;;10.73;7.72;;;;;;;;;;473354;250;26345;-74
2022/02/13 07:45:33;;;;;;;9.43;7.15;;;;;;;;;;473365;250;26284;-74
2022/02/13 07:47:35;;;;;;;9.98;7.53;;;2.90;99.90;;;;;;473365;250;26368;-74
2022/02/13 07:49:36;;;;;;;11.12;7.32;;;3.00;99.90;;;;;;473351;251;27451;-74
2022/02/13 07:51:37;;;;;;;11.02;7.50;;;3.10;99.90;;;;;;473341;251;27511;-74
2022/02/13 07:53:38;;;;;;;11.40;7.30;;;3.10;99.90;;;;;;473349;251;27518;-75
2022/02/13 07:55:40;;;;;;;8.63;6.75;;;3.10;99.90;;;;;;473326;251;27913;-75
2022/02/13 07:57:42;;;;;;;14.27;7.50;;;3.10;99.90;;;;;;473347;251;28003;-73
2022/02/13 07:59:44;;;;;;;13.40;6.40;;;3.00;99.90;;;;;;473272;251;27904;-74
2022/02/13 08:01:44;;;;;;;10.05;6.32;;;3.00;99.90;;;;;;472071;251;27867;-74
2022/02/13 08:03:45;;;;;;;9.32;6.53;;;3.00;99.90;;;;;;472015;251;27936;-74
2022/02/13 08:05:46;;;;;;;8.30;7.03;;;3.10;99.90;;;;;;472027;251;27427;-76
2022/02/13 08:07:50;;;;;;;10.60;6.40;;;3.10;99.90;;;;;;472004;251;27430;-74
2022/02/13 08:09:50;;;;;;;9.50;7.07;;;3.20;99.90;;;;;;472016;251;27435;-74
2022/02/13 08:11:51;;;;;;;10.63;7.00;;;3.20;99.90;;;;;;472005;251;27523;-75
2022/02/13 08:13:52;;;;;;;11.35;7.22;;;3.30;99.90;;;;;;471985;251;27442;-75
2022/02/13 08:15:54;;;;;;;8.18;6.53;;;3.40;99.90;;;;;;472009;252;27868;-74
2022/02/13 08:17:55;;;;;;;7.80;6.30;;;3.40;99.90;;;;;;471993;252;27987;-74
2022/02/13 08:19:56;;;;;;;9.80;6.53;;;3.40;99.90;;;;;;472019;251;27931;-73
2022/02/13 08:21:57;;;;;;;14.43;7.18;;;3.50;99.90;;;;;;471996;252;29082;-74
2022/02/13 08:23:59;;;;;;;11.95;7.70;;;3.50;99.90;;;;;;472060;251;27422;-74
2022/02/13 08:26:00;;;;;;;11.57;8.00;;;3.60;99.90;;;;;;472017;252;27507;-73
2022/02/13 08:28:01;;;;;;;9.95;6.82;;;3.70;99.90;;;;;;472037;251;27987;-74
2022/02/13 08:30:03;;;;;;;11.68;7.65;;;3.70;99.90;;;;;;471977;251;28048;-74
2022/02/13 08:32:04;;;;;;;8.38;6.90;;;3.70;99.90;;;;;;471975;251;28983;-75
2022/02/13 08:34:05;;;;;;;8.52;7.40;;;3.80;99.90;;;;;;471997;251;27511;-76
2022/02/13 08:36:06;;;;;;;12.13;7.78;;;3.80;99.90;;;;;;471953;251;27499;-74
2022/02/13 08:38:08;;;;;;;11.00;7.82;;;3.90;99.90;;;;;;472001;251;27423;-75
2022/02/13 08:40:09;;;;;;;11.40;7.30;;;4.00;99.90;;;;;;471992;251;27452;-77
2022/02/13 08:42:10;;;;;;;11.45;7.72;;;4.00;99.90;;;;;;471993;251;27422;-74
2022/02/13 08:44:11;;;;;;;11.00;7.00;;;4.10;99.90;;;;;;471995;251;27439;-75
2022/02/13 08:46:13;;;;;;;10.82;8.05;;;4.20;99.90;;;;;;471980;251;27418;-75
2022/02/13 08:48:14;;;;;;;9.43;7.03;;;4.30;99.90;;;;;;472006;251;27912;-75
2022/02/13 08:50:15;;;;;;;7.90;6.85;;;4.30;99.90;;;;;;471995;251;27529;-74
2022/02/13 08:52:17;;;;;;;13.98;7.00;;;4.30;99.90;;;;;;472001;251;27970;-74
2022/02/13 08:54:18;;;;;;;8.60;6.80;;;4.40;99.90;;;;;;471986;251;27895;-74
2022/02/13 08:56:19;;;;;;;16.70;7.60;;;4.40;99.90;;;;;;471990;251;28066;-76
2022/02/13 08:58:20;;;;;;;9.57;6.97;;;4.50;99.90;;;;;;471997;251;27427;-74
2022/02/13 09:00:22;;;;;;;11.75;7.35;;;4.40;99.90;;;;;;471990;251;27449;-75
2022/02/13 09:02:23;;;;;;;9.95;7.40;;;4.50;99.90;;;;;;471977;251;27422;-75
2022/02/13 09:04:24;;;;;;;9.20;7.43;;;4.60;99.90;;;;;;471990;251;27998;-75
2022/02/13 09:06:25;;;;;;;9.95;7.15;;;4.60;99.90;;;;;;471994;251;28054;-74
2022/02/13 09:08:28;;;;;;;12.32;8.20;;;4.60;99.90;;;;;;471989;251;27991;-75
2022/02/13 09:10:30;;;;;;;15.13;7.60;;;4.70;99.90;;;;;;471999;251;27939;-74
2022/02/13 09:12:31;;;;;;;12.27;7.25;;;4.70;99.90;;;;;;472015;251;27431;-74
2022/02/13 09:14:32;;;;;;;11.98;6.97;;;4.80;99.90;;;;;;472004;251;27427;-75
2022/02/13 09:16:34;;;;;;;15.25;7.10;;;4.80;99.90;;;;;;472006;251;27884;-76
2022/02/13 09:18:35;;;;;;;10.52;6.32;;;4.70;99.90;;;;;;472022;251;29002;-73
2022/02/13 09:20:38;;;;;;;8.50;6.25;;;4.70;99.90;;;;;;472014;251;27896;-74
2022/02/13 09:22:38;;;;;;;10.30;6.55;;;4.70;99.90;;;;;;472019;251;27431;-74
2022/02/13 09:24:41;;;;;;;7.12;6.43;;;4.70;99.90;;;;;;472018;251;27511;-76
2022/02/13 09:26:41;;;;;;;11.27;7.78;;;4.80;99.90;;;;;;472010;251;27523;-74
2022/02/13 09:28:42;;;;;;;11.68;8.00;;;4.90;99.90;;;;;;472012;252;27887;-74
2022/02/13 09:30:49;;;;;;;10.70;6.80;;;5.10;99.90;;;;;;471989;252;27907;-74
2022/02/13 09:32:50;;;;;;;10.10;6.95;;;5.10;99.90;;;;;;472018;251;27900;-74
2022/02/13 09:34:51;;;;;;;11.82;7.20;;;5.00;99.90;;;;;;472000;251;27430;-73
2022/02/13 09:36:52;;;;;;;12.75;7.57;;;5.10;99.90;;;;;;471995;251;27970;-73
2022/02/13 09:38:54;;;;;;;10.68;7.07;;;5.10;99.90;;;;;;472020;251;27995;-74
2022/02/13 09:40:55;;;;;;;11.70;6.90;;;5.20;99.90;;;;;;472002;251;27565;-74
2022/02/13 09:42:56;;;;;;;9.40;7.25;;;5.20;99.90;;;;;;472028;251;27439;-75
2022/02/13 09:44:57;;;;;;;12.20;7.82;;;5.20;99.90;;;;;;472019;252;27899;-75
2022/02/13 09:46:59;;;;;;;10.60;8.40;;;5.20;99.90;;;;;;472030;251;27985;-73
2022/02/13 09:49:00;;;;;;;12.43;8.77;;;5.30;99.90;;;;;;472001;251;27867;-74
2022/02/13 09:51:02;;;;;;;11.82;8.35;;;5.30;99.90;;;;;;472019;251;27431;-73
2022/02/13 09:53:02;;;;;;;14.30;8.95;;;5.40;99.90;;;;;;472007;251;27510;-76
2022/02/13 09:55:04;;;;;;;13.13;7.90;;;5.40;99.90;;;;;;472010;251;27508;-74
2022/02/13 09:59:24;;;;;;;10.40;7.50;;;5.40;99.90;;;;;;472007;251;27542;-74
2022/02/13 10:01:25;;;;;;;10.07;7.37;;;5.50;99.90;;;;;;472018;252;27880;-74
2022/02/13 10:03:27;;;;;;;17.65;8.85;;;5.60;99.90;;;;;;472019;251;27881;-74
2022/02/13 10:05:28;;;;;;;13.73;8.55;;;5.60;99.90;;;;;;472025;251;27514;-75
2022/02/13 10:07:30;;;;;;;17.52;8.77;;;5.70;99.90;;;;;;472031;251;27455;-75
2022/02/13 10:09:31;;;;;;;15.40;7.95;;;5.80;99.90;;;;;;472020;251;27418;-74
2022/02/13 10:11:36;;;;;;;13.20;8.75;;;5.70;99.90;;;;;;472030;251;27527;-76
2022/02/13 10:13:37;;;;;;;12.43;7.97;;;5.80;99.90;;;;;;472015;251;27490;-74
2022/02/13 10:15:38;;;;;;;12.20;8.30;;;5.80;99.90;;;;;;471998;251;27515;-74
2022/02/13 10:17:39;;;;;;;21.05;8.95;;;5.90;99.90;;;;;;472019;251;27892;-74
2022/02/13 10:19:41;;;;;;;14.90;7.93;;;6.00;99.90;;;;;;472020;251;27895;-75
2022/02/13 10:21:42;;;;;;;13.02;6.62;;;6.10;99.90;;;;;;472001;251;27427;-74
2022/02/13 10:23:43;;;;;;;23.92;8.23;;;6.10;99.90;;;;;;472028;251;27419;-74
2022/02/13 10:25:45;;;;;;;14.48;7.25;;;6.00;99.90;;;;;;472018;251;27423;-73
2022/02/13 10:27:46;;;;;;;15.52;9.10;;;6.00;99.90;;;;;;471993;252;28006;-74
2022/02/13 10:29:49;;;;;;;11.63;7.68;;;6.10;99.90;;;;;;472010;251;27890;-77
2022/02/13 10:31:48;;;;;;;14.75;7.53;;;6.10;99.90;;;;;;472012;251;27431;-73
2022/02/13 10:33:49;;;;;;;11.27;6.78;;;6.20;99.90;;;;;;472023;251;28013;-74
2022/02/13 10:35:51;;;;;;;11.88;6.78;;;6.30;99.90;;;;;;472025;251;27965;-77
2022/02/13 10:37:52;;;;;;;9.20;6.43;;;6.30;99.90;;;;;;472031;251;27492;-74
2022/02/13 10:39:53;;;;;;;10.32;6.40;;;6.40;99.90;;;;;;472016;251;27419;-74
2022/02/13 10:41:55;;;;;;;14.93;5.80;;;6.40;99.90;;;;;;472031;251;27430;-75
2022/02/13 10:43:56;;;;;;;13.82;7.43;;;6.50;99.90;;;;;;472010;252;27427;-73
2022/02/13 10:45:57;;;;;;;12.18;7.47;;;6.60;99.90;;;;;;472035;251;27491;-74
2022/02/13 10:47:59;;;;;;;11.35;7.65;;;6.70;99.90;;;;;;472022;251;27903;-73
2022/02/13 10:50:00;;;;;;;23.48;11.73;;;6.70;99.90;;;;;;472048;251;27423;-75
2022/02/13 10:52:01;;;;;;;19.15;10.68;;;6.80;99.90;;;;;;472026;251;27884;-74
2022/02/13 10:54:05;;;;;;;16.75;9.05;;;6.80;99.90;;;;;;471996;252;27431;-74
2022/02/13 10:56:06;;;;;;;15.30;8.68;;;6.90;99.90;;;;;;472024;252;27423;-74
2022/02/13 10:58:08;;;;;;;13.62;7.68;;;6.90;99.90;;;;;;472030;251;27503;-75
2022/02/13 11:00:09;;;;;;;16.20;7.85;;;7.00;99.90;;;;;;472046;251;27880;-73
2022/02/13 11:02:10;;;;;;;12.55;7.35;;;7.00;99.90;;;;;;472062;252;27526;-73
2022/02/13 11:04:12;;;;;;;12.32;7.05;;;7.00;99.90;;;;;;472056;251;27410;-75
2022/02/13 11:06:13;;;;;;;10.80;7.45;;;7.00;99.90;;;;;;472062;251;27434;-74
2022/02/13 11:08:14;;;;;;;9.10;7.30;;;7.10;99.90;;;;;;472061;251;27855;-74
2022/02/13 11:10:16;;;;;;;10.67;6.50;;;7.10;99.90;;;;;;472068;251;27430;-75
2022/02/13 11:12:17;;;;;;;11.02;6.80;;;7.10;99.90;;;;;;472053;251;29255;-74
2022/02/13 11:14:18;;;;;;;10.30;6.55;;;7.10;99.90;;;;;;472055;251;28005;-74
2022/02/13 11:16:19;;;;;;;9.15;6.12;;;7.10;99.90;;;;;;472078;251;27423;-74
2022/02/13 11:18:21;;;;;;;9.68;6.10;;;7.20;99.90;;;;;;472064;251;27979;-75
2022/02/13 11:20:22;;;;;;;9.98;6.15;;;7.30;99.90;;;;;;472067;251;27899;-73
2022/02/13 11:22:23;;;;;;;11.40;6.10;;;7.40;99.90;;;;;;472079;251;27411;-73
2022/02/13 11:24:24;;;;;;;13.13;6.30;;;7.40;99.90;;;;;;472054;251;28885;-74
2022/02/13 11:26:27;;;;;;;11.63;6.70;;;7.50;99.90;;;;;;472055;251;29612;-73
2022/02/13 11:28:28;;;;;;;16.17;7.23;;;7.50;99.90;;;;;;472037;251;28389;-76
2022/02/13 11:30:29;;;;;;;8.30;6.12;;;7.50;99.90;;;;;;472074;251;28258;-73
2022/02/13 11:32:30;;;;;;;10.17;6.70;;;7.50;99.90;;;;;;472072;251;27903;-73
2022/02/13 11:34:32;;;;;;;9.53;6.30;;;7.60;99.90;;;;;;472073;251;28591;-73
2022/02/13 11:36:33;;;;;;;7.95;6.10;;;7.60;99.90;;;;;;472074;251;29080;-74